Time,TemperatureF,DewpointF,PressureIn,WindDirection,WindDirectionDegrees,WindSpeedMPH,WindSpeedGustMPH,Humidity,HourlyPrecipIn,Conditions,Clouds,dailyrainin,SolarRadiationWatts/m^2,SoftwareType,DateUTC
2013-03-13 00:04:00,7.7,4.1,30.44,North,5,3.0,4.0,85,0.00,,CLR,0.00,0.00,VWS V14.00,2013-03-13 05:04:00,
2013-03-13 00:09:00,7.3,3.2,30.44,North,5,2.0,4.0,83,0.00,,CLR,0.00,0.00,VWS V14.00,2013-03-13 05:09:00,
2013-03-13 00:14:00,6.2,1.9,30.44,North,5,2.0,4.0,82,0.00,,CLR,0.00,0.00,VWS V14.00,2013-03-13 05:14:00,
2013-03-13 00:20:00,5.5,1.5,30.44,North,5,3.0,4.0,83,0.00,,CLR,0.00,0.00,VWS V14.00,2013-03-13 05:20:00,
2013-03-13 00:25:00,4.9,1.1,30.44,NNE,13,4.0,4.0,84,0.00,,CLR,0.00,0.00,VWS V14.00,2013-03-13 05:25:00,
2013-03-13 00:30:00,4.3,0.6,30.44,NNE,28,3.0,4.0,84,0.00,,CLR,0.00,0.00,VWS V14.00,2013-03-13 05:30:00,
2013-03-13 00:35:00,4.1,0.6,30.44,NNE,28,4.0,4.0,85,0.00,,CLR,0.00,0.00,VWS V14.00,2013-03-13 05:35:00,
2013-03-13 00:40:00,5.0,2.0,30.44,NNE,28,2.0,4.0,87,0.00,,CLR,0.00,0.00,VWS V14.00,2013-03-13 05:40:00,
2013-03-13 00:45:00,5.9,3.1,30.44,NNE,28,2.0,4.0,88,0.00,,CLR,0.00,0.00,VWS V14.00,2013-03-13 05:45:00,
2013-03-13 00:50:00,6.3,3.3,30.44,NNE,28,3.0,4.0,87,0.00,,CLR,0.00,0.00,VWS V14.00,2013-03-13 05:50:00,
2013-03-13 00:55:00,6.5,3.5,30.44,NNE,28,2.0,4.0,87,0.00,,CLR,0.00,0.00,VWS V14.00,2013-03-13 05:55:00,
2013-03-13 01:00:00,6.0,2.5,30.44,NNE,28,0.0,0.0,85,0.00,,CLR,0.00,0.00,VWS V14.00,2013-03-13 06:00:00,
2013-03-13 01:06:00,5.8,2.5,30.44,NNE,28,3.0,4.0,86,0.00,,CLR,0.00,0.00,VWS V14.00,2013-03-13 06:06:00,
2013-03-13 01:11:00,5.8,2.5,30.43,NNE,28,3.0,4.0,86,0.00,,CLR,0.00,0.00,VWS V14.00,2013-03-13 06:11:00,
2013-03-13 01:16:00,6.0,3.0,30.44,NNE,28,3.0,4.0,87,0.00,,CLR,0.00,0.00,VWS V14.00,2013-03-13 06:16:00,
2013-03-13 01:21:00,6.0,3.0,30.44,NNE,29,5.0,5.0,87,0.00,,CLR,0.00,0.00,VWS V14.00,2013-03-13 06:21:00,
2013-03-13 01:26:00,5.8,2.5,30.43,NE,37,4.0,6.0,86,0.00,,CLR,0.00,0.00,VWS V14.00,2013-03-13 06:26:00,
2013-03-13 01:31:00,5.9,2.9,30.44,NE,43,6.0,6.0,87,0.00,,CLR,0.00,0.00,VWS V14.00,2013-03-13 06:31:00,
2013-03-13 01:37:00,5.8,2.8,30.44,NE,50,4.0,7.0,87,0.00,,CLR,0.00,0.00,VWS V14.00,2013-03-13 06:37:00,
2013-03-13 01:42:00,6.3,3.3,30.44,NE,50,4.0,7.0,87,0.00,,CLR,0.00,0.00,VWS V14.00,2013-03-13 06:42:00,
2013-03-13 01:48:00,6.6,3.8,30.43,NE,50,4.0,7.0,88,0.00,,CLR,0.00,0.00,VWS V14.00,2013-03-13 06:48:00,
2013-03-13 01:53:00,6.8,3.8,30.43,NE,50,4.0,7.0,87,0.00,,CLR,0.00,0.00,VWS V14.00,2013-03-13 06:53:00,
2013-03-13 01:58:00,7.1,4.3,30.43,NE,50,4.0,7.0,88,0.00,,CLR,0.00,0.00,VWS V14.00,2013-03-13 06:58:00,
2013-03-13 02:03:00,7.4,4.3,30.43,NE,50,4.0,4.0,87,0.00,,CLR,0.00,0.00,VWS V14.00,2013-03-13 07:03:00,
2013-03-13 02:08:00,7.5,4.2,30.43,NE,50,4.0,4.0,86,0.00,,CLR,0.00,0.00,VWS V14.00,2013-03-13 07:08:00,
2013-03-13 02:13:00,7.3,4.0,30.43,NE,50,4.0,4.0,86,0.00,,CLR,0.00,0.00,VWS V14.00,2013-03-13 07:13:00,
2013-03-13 02:18:00,7.3,4.0,30.43,NE,50,4.0,4.0,86,0.00,,CLR,0.00,0.00,VWS V14.00,2013-03-13 07:18:00,
2013-03-13 02:23:00,7.3,4.0,30.43,NE,50,4.0,4.0,86,0.00,,CLR,0.00,0.00,VWS V14.00,2013-03-13 07:23:00,
2013-03-13 02:28:00,7.3,4.0,30.43,NE,50,4.0,4.0,86,0.00,,CLR,0.00,0.00,VWS V14.00,2013-03-13 07:28:00,
2013-03-13 02:33:00,7.6,4.3,30.43,NE,50,4.0,4.0,86,0.00,,CLR,0.00,0.00,VWS V14.00,2013-03-13 07:33:00,
2013-03-13 02:38:00,7.7,4.4,30.42,NE,50,4.0,4.0,86,0.00,,CLR,0.00,0.00,VWS V14.00,2013-03-13 07:38:00,
2013-03-13 02:44:00,7.3,3.8,30.42,NE,50,4.0,4.0,85,0.00,,CLR,0.00,0.00,VWS V14.00,2013-03-13 07:44:00,
2013-03-13 02:49:00,7.1,3.5,30.42,NE,50,4.0,4.0,85,0.00,,CLR,0.00,0.00,VWS V14.00,2013-03-13 07:49:00,
2013-03-13 02:54:00,7.1,3.8,30.42,NE,50,4.0,4.0,86,0.00,,CLR,0.00,0.00,VWS V14.00,2013-03-13 07:54:00,
2013-03-13 02:59:00,7.0,3.5,30.42,NE,50,4.0,4.0,85,0.00,,CLR,0.00,0.00,VWS V14.00,2013-03-13 07:59:00,
2013-03-13 03:04:00,6.9,3.6,30.42,NE,50,4.0,4.0,86,0.00,,CLR,0.00,0.00,VWS V14.00,2013-03-13 08:04:00,
2013-03-13 03:10:00,6.9,3.6,30.42,NE,50,4.0,4.0,86,0.00,,CLR,0.00,0.00,VWS V14.00,2013-03-13 08:10:00,
2013-03-13 03:15:00,6.8,3.5,30.42,NE,50,4.0,4.0,86,0.00,,CLR,0.00,0.00,VWS V14.00,2013-03-13 08:15:00,
2013-03-13 03:20:00,6.7,3.4,30.42,NE,50,4.0,4.0,86,0.00,,CLR,0.00,0.00,VWS V14.00,2013-03-13 08:20:00,
2013-03-13 03:25:00,6.7,3.4,30.42,NE,50,4.0,4.0,86,0.00,,CLR,0.00,0.00,VWS V14.00,2013-03-13 08:25:00,
2013-03-13 03:30:00,6.6,3.3,30.41,NE,50,4.0,4.0,86,0.00,,CLR,0.00,0.00,VWS V14.00,2013-03-13 08:30:00,
2013-03-13 03:35:00,6.4,3.1,30.41,NE,50,4.0,4.0,86,0.00,,CLR,0.00,0.00,VWS V14.00,2013-03-13 08:35:00,
2013-03-13 03:40:00,6.3,3.0,30.41,NE,50,4.0,4.0,86,0.00,,CLR,0.00,0.00,VWS V14.00,2013-03-13 08:40:00,
2013-03-13 03:45:00,6.3,3.3,30.41,NE,50,4.0,4.0,87,0.00,,CLR,0.00,0.00,VWS V14.00,2013-03-13 08:45:00,
2013-03-13 03:51:00,6.3,3.3,30.41,NE,50,4.0,4.0,87,0.00,,CLR,0.00,0.00,VWS V14.00,2013-03-13 08:51:00,
2013-03-13 03:56:00,6.4,3.4,30.41,NE,50,4.0,4.0,87,0.00,,CLR,0.00,0.00,VWS V14.00,2013-03-13 08:56:00,
2013-03-13 04:01:00,6.6,3.6,30.41,NE,50,4.0,4.0,87,0.00,,CLR,0.00,0.00,VWS V14.00,2013-03-13 09:01:00,
2013-03-13 04:06:00,6.7,3.7,30.40,NE,50,4.0,4.0,87,0.00,,CLR,0.00,0.00,VWS V14.00,2013-03-13 09:06:00,
2013-03-13 04:11:00,6.6,3.8,30.41,NE,50,4.0,4.0,88,0.00,,CLR,0.00,0.00,VWS V14.00,2013-03-13 09:11:00,
2013-03-13 04:16:00,6.7,3.9,30.41,NE,50,4.0,4.0,88,0.00,,CLR,0.00,0.00,VWS V14.00,2013-03-13 09:16:00,
2013-03-13 04:21:00,6.7,3.9,30.41,NE,50,4.0,4.0,88,0.00,,CLR,0.00,0.00,VWS V14.00,2013-03-13 09:21:00,
2013-03-13 04:26:00,6.5,3.7,30.41,NE,50,4.0,4.0,88,0.00,,CLR,0.00,0.00,VWS V14.00,2013-03-13 09:26:00,
2013-03-13 04:32:00,6.2,3.2,30.42,NE,50,4.0,4.0,87,0.00,,CLR,0.00,0.00,VWS V14.00,2013-03-13 09:32:00,
2013-03-13 04:37:00,5.7,2.7,30.42,NE,50,4.0,4.0,87,0.00,,CLR,0.00,0.00,VWS V14.00,2013-03-13 09:37:00,
2013-03-13 04:42:00,5.6,2.8,30.42,SE,124,4.0,7.0,88,0.00,,CLR,0.00,0.00,VWS V14.00,2013-03-13 09:42:00,
2013-03-13 04:47:00,5.6,2.8,30.42,SE,124,2.0,7.0,88,0.00,,CLR,0.00,0.00,VWS V14.00,2013-03-13 09:47:00,
2013-03-13 04:52:00,5.6,2.8,30.42,SE,124,3.0,7.0,88,0.00,,CLR,0.00,0.00,VWS V14.00,2013-03-13 09:52:00,
2013-03-13 04:57:00,5.7,2.9,30.42,SE,124,4.0,7.0,88,0.00,,CLR,0.00,0.00,VWS V14.00,2013-03-13 09:57:00,
2013-03-13 05:02:00,5.9,3.1,30.41,SE,124,5.0,6.0,88,0.00,,CLR,0.00,0.00,VWS V14.00,2013-03-13 10:02:00,
2013-03-13 05:07:00,5.9,3.1,30.42,SE,124,5.0,6.0,88,0.00,,CLR,0.00,0.00,VWS V14.00,2013-03-13 10:07:00,
2013-03-13 05:12:00,5.8,3.0,30.42,SE,124,4.0,6.0,88,0.00,,CLR,0.00,0.00,VWS V14.00,2013-03-13 10:12:00,
2013-03-13 05:17:00,5.7,2.9,30.42,SE,124,4.0,6.0,88,0.00,,CLR,0.00,0.00,VWS V14.00,2013-03-13 10:17:00,
2013-03-13 05:22:00,5.7,2.9,30.42,SE,124,3.0,6.0,88,0.00,,CLR,0.00,0.00,VWS V14.00,2013-03-13 10:22:00,
2013-03-13 05:27:00,5.7,2.9,30.42,SE,124,5.0,6.0,88,0.00,,CLR,0.00,0.00,VWS V14.00,2013-03-13 10:27:00,
2013-03-13 05:32:00,5.8,3.0,30.41,SE,124,4.0,5.0,88,0.00,,CLR,0.00,0.00,VWS V14.00,2013-03-13 10:32:00,
2013-03-13 05:37:00,5.8,3.0,30.41,SE,124,6.0,7.0,88,0.00,,CLR,0.00,0.00,VWS V14.00,2013-03-13 10:37:00,
2013-03-13 05:42:00,5.8,3.0,30.42,SE,124,5.0,7.0,88,0.00,,FEW120,0.00,0.00,VWS V14.00,2013-03-13 10:42:00,
2013-03-13 05:47:00,5.6,2.8,30.42,ESE,123,7.0,8.0,88,0.00,,FEW120,0.00,0.00,VWS V14.00,2013-03-13 10:47:00,
2013-03-13 05:53:00,5.4,2.6,30.41,ESE,123,7.0,9.0,88,0.00,,FEW120,0.00,0.00,VWS V14.00,2013-03-13 10:53:00,
2013-03-13 05:58:00,5.3,2.5,30.41,ESE,122,7.0,9.0,88,0.00,,FEW120,0.00,0.00,VWS V14.00,2013-03-13 10:58:00,
2013-03-13 06:03:00,5.7,3.2,30.40,ESE,121,9.0,9.0,89,0.00,,FEW120,0.00,0.00,VWS V14.00,2013-03-13 11:03:00,
2013-03-13 06:08:00,6.2,3.7,30.41,ESE,121,10.0,10.0,89,0.00,,FEW120,0.00,0.00,VWS V14.00,2013-03-13 11:08:00,
2013-03-13 06:13:00,6.9,4.6,30.40,ESE,123,10.0,11.0,90,0.00,,FEW120,0.00,0.00,VWS V14.00,2013-03-13 11:13:00,
2013-03-13 06:18:00,7.2,4.7,30.40,ESE,123,11.0,11.0,89,0.00,,FEW120,0.00,0.00,VWS V14.00,2013-03-13 11:18:00,
2013-03-13 06:23:00,7.4,4.8,30.40,SE,126,10.0,11.0,89,0.00,,FEW120,0.00,0.00,VWS V14.00,2013-03-13 11:23:00,
2013-03-13 06:28:00,7.8,5.2,30.39,SE,127,9.0,11.0,89,0.00,,FEW120,0.00,0.00,VWS V14.00,2013-03-13 11:28:00,
2013-03-13 06:34:00,8.0,5.4,30.40,SE,132,7.0,11.0,89,0.00,,FEW120,0.00,0.00,VWS V14.00,2013-03-13 11:34:00,
2013-03-13 06:39:00,7.7,4.9,30.39,SE,134,9.0,11.0,88,0.00,,FEW120,0.00,0.00,VWS V14.00,2013-03-13 11:39:00,
2013-03-13 06:44:00,7.7,4.9,30.39,SE,136,8.0,11.0,88,0.00,,CLR,0.00,0.00,VWS V14.00,2013-03-13 11:44:00,
2013-03-13 06:49:00,7.7,4.9,30.39,SE,138,9.0,11.0,88,0.00,,CLR,0.00,0.00,VWS V14.00,2013-03-13 11:49:00,
2013-03-13 06:54:00,7.7,4.9,30.39,SE,137,8.0,11.0,88,0.00,,CLR,0.00,0.00,VWS V14.00,2013-03-13 11:54:00,
2013-03-13 06:59:00,7.5,4.7,30.39,SE,136,7.0,8.0,88,0.00,,CLR,0.00,0.00,VWS V14.00,2013-03-13 11:59:00,
2013-03-13 07:04:00,7.2,4.4,30.39,SE,135,7.0,8.0,88,0.00,,CLR,0.00,0.00,VWS V14.00,2013-03-13 12:04:00,
2013-03-13 07:09:00,6.8,4.0,30.38,SE,133,8.0,11.0,88,0.00,,CLR,0.00,0.00,VWS V14.00,2013-03-13 12:09:00,
2013-03-13 07:14:00,6.7,3.9,30.38,SE,132,10.0,12.0,88,0.00,,CLR,0.00,0.00,VWS V14.00,2013-03-13 12:14:00,
2013-03-13 07:19:00,6.9,4.3,30.38,SE,131,9.0,12.0,89,0.00,,CLR,0.00,0.00,VWS V14.00,2013-03-13 12:19:00,
2013-03-13 07:24:00,7.1,4.6,30.38,SE,128,8.0,12.0,89,0.00,,CLR,0.00,0.00,VWS V14.00,2013-03-13 12:24:00,
2013-03-13 07:29:00,7.2,4.7,30.38,SE,126,8.0,10.0,89,0.00,,CLR,0.00,0.00,VWS V14.00,2013-03-13 12:29:00,
2013-03-13 07:34:00,7.5,4.9,30.38,SE,124,7.0,11.0,89,0.00,,CLR,0.00,0.00,VWS V14.00,2013-03-13 12:34:00,
2013-03-13 07:40:00,7.6,5.0,30.37,ESE,121,9.0,11.0,89,0.00,,CLR,0.00,0.00,VWS V14.00,2013-03-13 12:40:00,
2013-03-13 07:45:00,7.5,4.9,30.37,ESE,121,10.0,13.0,89,0.00,,CLR,0.00,0.00,VWS V14.00,2013-03-13 12:45:00,
2013-03-13 07:50:00,7.8,5.2,30.37,ESE,123,13.0,13.0,89,0.00,,CLR,0.00,0.00,VWS V14.00,2013-03-13 12:50:00,
2013-03-13 07:55:00,8.3,6.0,30.37,SE,125,12.0,13.0,90,0.00,,CLR,0.00,0.00,VWS V14.00,2013-03-13 12:55:00,
2013-03-13 08:00:00,9.1,6.8,30.36,SE,126,14.0,14.0,90,0.00,,CLR,0.00,5.00,VWS V14.00,2013-03-13 13:00:00,
2013-03-13 08:05:00,9.5,7.2,30.37,SE,128,12.0,14.0,90,0.00,,CLR,0.00,9.00,VWS V14.00,2013-03-13 13:05:00,
2013-03-13 08:10:00,9.9,7.6,30.38,SE,128,8.0,14.0,90,0.00,,FEW110,0.00,12.00,VWS V14.00,2013-03-13 13:10:00,
2013-03-13 08:15:00,9.9,7.3,30.37,SE,127,9.0,14.0,89,0.00,,FEW110,0.00,16.00,VWS V14.00,2013-03-13 13:15:00,
2013-03-13 08:20:00,9.8,7.2,30.37,SE,126,8.0,14.0,89,0.00,,FEW110,0.00,21.00,VWS V14.00,2013-03-13 13:20:00,
2013-03-13 08:25:00,9.6,6.8,30.37,ESE,121,12.0,14.0,88,0.00,,FEW110,0.00,26.00,VWS V14.00,2013-03-13 13:25:00,
2013-03-13 08:30:00,9.6,6.8,30.37,SE,125,10.0,15.0,88,0.00,,FEW110,0.00,40.00,VWS V14.00,2013-03-13 13:30:00,
2013-03-13 08:35:00,9.8,7.2,30.37,SE,125,11.0,15.0,89,0.00,,FEW110,0.00,49.00,VWS V14.00,2013-03-13 13:35:00,
2013-03-13 08:40:00,9.9,7.3,30.37,SE,128,10.0,15.0,89,0.00,,FEW110,0.00,63.00,VWS V14.00,2013-03-13 13:40:00,
2013-03-13 08:46:00,10.3,7.7,30.37,SE,131,10.0,15.0,89,0.00,,SCT100,0.00,72.00,VWS V14.00,2013-03-13 13:46:00,
2013-03-13 08:51:00,10.7,8.1,30.37,SE,139,12.0,15.0,89,0.00,,SCT100,0.00,90.00,VWS V14.00,2013-03-13 13:51:00,
2013-03-13 08:57:00,10.9,8.1,30.36,SE,135,13.0,15.0,88,0.00,,SCT100,0.00,86.00,VWS V14.00,2013-03-13 13:57:00,
2013-03-13 09:02:00,10.9,8.1,30.36,SE,140,12.0,14.0,88,0.00,,SCT100,0.00,95.00,VWS V14.00,2013-03-13 14:02:00,
2013-03-13 09:07:00,11.0,8.1,30.36,SE,140,9.0,15.0,88,0.00,,SCT100,0.00,114.00,VWS V14.00,2013-03-13 14:07:00,
2013-03-13 09:12:00,11.3,8.4,30.36,SE,138,12.0,15.0,88,0.00,,SCT100,0.00,118.00,VWS V14.00,2013-03-13 14:12:00,
2013-03-13 09:17:00,11.8,9.2,30.36,SE,140,11.0,15.0,89,0.00,,SCT100,0.00,127.00,VWS V14.00,2013-03-13 14:17:00,
2013-03-13 09:22:00,12.4,9.8,30.36,SE,140,10.0,15.0,89,0.00,,SCT100,0.00,146.00,VWS V14.00,2013-03-13 14:22:00,
2013-03-13 09:27:00,13.0,10.4,30.36,SE,140,10.0,15.0,89,0.00,,SCT100,0.00,146.00,VWS V14.00,2013-03-13 14:27:00,
2013-03-13 09:33:00,13.6,11.0,30.36,SE,140,10.0,14.0,89,0.00,,SCT100,0.00,137.00,VWS V14.00,2013-03-13 14:33:00,
2013-03-13 09:38:00,14.1,11.5,30.36,SE,138,8.0,14.0,89,0.00,,SCT100,0.00,141.00,VWS V14.00,2013-03-13 14:38:00,
2013-03-13 09:43:00,14.5,11.6,30.36,SE,143,10.0,14.0,88,0.00,,OVC100,0.00,151.00,VWS V14.00,2013-03-13 14:43:00,
2013-03-13 09:48:00,14.9,12.0,30.35,SE,144,9.0,14.0,88,0.00,,OVC100,0.00,160.00,VWS V14.00,2013-03-13 14:48:00,
2013-03-13 09:53:00,15.4,12.5,30.36,SE,144,10.0,14.0,88,0.00,,OVC100,0.00,174.00,VWS V14.00,2013-03-13 14:53:00,
2013-03-13 09:58:00,15.8,12.9,30.36,SE,143,10.0,15.0,88,0.00,,OVC100,0.00,172.00,VWS V14.00,2013-03-13 14:58:00,
2013-03-13 10:03:00,16.0,12.8,30.36,SSE,153,6.0,11.0,87,0.00,,OVC100,0.00,181.00,VWS V14.00,2013-03-13 15:03:00,
2013-03-13 10:08:00,16.5,13.3,30.36,SSE,156,11.0,13.0,87,0.00,,OVC100,0.00,193.00,VWS V14.00,2013-03-13 15:08:00,
2013-03-13 10:13:00,16.8,13.6,30.36,SE,146,6.0,13.0,87,0.00,,OVC100,0.00,188.00,VWS V14.00,2013-03-13 15:13:00,
2013-03-13 10:18:00,17.0,13.8,30.36,SE,146,10.0,13.0,87,0.00,,OVC100,0.00,186.00,VWS V14.00,2013-03-13 15:18:00,
2013-03-13 10:23:00,17.2,13.7,30.36,SSE,154,11.0,13.0,86,0.00,,OVC100,0.00,186.00,VWS V14.00,2013-03-13 15:23:00,
2013-03-13 10:28:00,17.5,14.0,30.36,SSE,154,7.0,13.0,86,0.00,,OVC100,0.00,192.00,VWS V14.00,2013-03-13 15:28:00,
2013-03-13 10:34:00,17.9,14.4,30.36,SSE,152,9.0,13.0,86,0.00,,OVC100,0.00,206.00,VWS V14.00,2013-03-13 15:34:00,
2013-03-13 10:39:00,18.2,14.7,30.36,SE,146,10.0,13.0,86,0.00,,OVC100,0.00,213.00,VWS V14.00,2013-03-13 15:39:00,
2013-03-13 10:44:00,18.5,15.0,30.36,SE,141,12.0,13.0,86,0.00,,OVC090,0.00,227.00,VWS V14.00,2013-03-13 15:44:00,
2013-03-13 10:49:00,18.7,14.9,30.35,SE,142,12.0,13.0,85,0.00,,OVC090,0.00,237.00,VWS V14.00,2013-03-13 15:49:00,
2013-03-13 10:54:00,18.8,15.1,30.35,SE,146,6.0,15.0,85,0.00,,OVC090,0.00,250.00,VWS V14.00,2013-03-13 15:54:00,
2013-03-13 10:59:00,19.1,15.3,30.35,SE,141,12.0,12.0,85,0.00,,OVC090,0.00,262.00,VWS V14.00,2013-03-13 15:59:00,
2013-03-13 11:05:00,19.4,15.6,30.35,SE,135,14.0,16.0,85,0.00,,OVC090,0.00,287.00,VWS V14.00,2013-03-13 16:05:00,
2013-03-13 11:10:00,19.6,15.8,30.35,SE,146,9.0,16.0,85,0.00,,OVC090,0.00,299.00,VWS V14.00,2013-03-13 16:10:00,
2013-03-13 11:15:00,19.9,15.9,30.35,SSE,148,13.0,16.0,84,0.00,,OVC090,0.00,318.00,VWS V14.00,2013-03-13 16:15:00,
2013-03-13 11:20:00,19.9,15.9,30.35,SSE,150,10.0,16.0,84,0.00,,OVC090,0.00,338.00,VWS V14.00,2013-03-13 16:20:00,
2013-03-13 11:25:00,20.1,16.0,30.34,SE,142,10.0,16.0,84,0.00,,OVC090,0.00,332.00,VWS V14.00,2013-03-13 16:25:00,
2013-03-13 11:30:00,20.3,16.2,30.33,SE,130,16.0,16.0,84,0.00,,OVC090,0.00,334.00,VWS V14.00,2013-03-13 16:30:00,
2013-03-13 11:35:00,20.5,16.4,30.32,SE,132,13.0,17.0,84,0.00,,OVC090,0.00,334.00,VWS V14.00,2013-03-13 16:35:00,
2013-03-13 11:40:00,21.0,16.9,30.33,SSE,154,10.0,18.0,84,0.00,,OVC085,0.00,494.00,VWS V14.00,2013-03-13 16:40:00,
2013-03-13 11:45:00,21.5,17.1,30.33,SSE,160,12.0,18.0,83,0.00,,OVC085,0.00,301.00,VWS V14.00,2013-03-13 16:45:00,
2013-03-13 11:50:00,22.1,17.5,30.33,SSE,148,13.0,18.0,82,0.00,,OVC085,0.00,589.00,VWS V14.00,2013-03-13 16:50:00,
2013-03-13 11:56:00,22.7,17.8,30.32,SSE,165,12.0,18.0,81,0.00,,OVC085,0.00,564.00,VWS V14.00,2013-03-13 16:56:00,
2013-03-13 12:01:00,23.4,18.4,30.32,SSE,150,13.0,15.0,81,0.00,,OVC085,0.00,606.00,VWS V14.00,2013-03-13 17:01:00,
2013-03-13 12:06:00,23.9,18.6,30.32,SE,141,14.0,16.0,80,0.00,,OVC085,0.00,610.00,VWS V14.00,2013-03-13 17:06:00,
2013-03-13 12:11:00,24.3,18.7,30.32,SSE,155,12.0,16.0,79,0.00,,OVC085,0.00,578.00,VWS V14.00,2013-03-13 17:11:00,
2013-03-13 12:16:00,24.9,19.0,30.32,SSE,157,15.0,16.0,78,0.00,,OVC085,0.00,557.00,VWS V14.00,2013-03-13 17:16:00,
2013-03-13 12:22:00,25.5,19.6,30.31,SSE,148,11.0,16.0,78,0.00,,OVC085,0.00,559.00,VWS V14.00,2013-03-13 17:22:00,
2013-03-13 12:27:00,26.1,19.3,30.31,SSE,154,13.0,16.0,75,0.00,,OVC085,0.00,594.00,VWS V14.00,2013-03-13 17:27:00,
2013-03-13 12:32:00,26.5,19.4,30.31,South,169,11.0,14.0,74,0.00,,OVC085,0.00,608.00,VWS V14.00,2013-03-13 17:32:00,
2013-03-13 12:37:00,27.1,19.6,30.31,SSE,164,11.0,16.0,73,0.00,,OVC085,0.00,668.00,VWS V14.00,2013-03-13 17:37:00,
2013-03-13 12:43:00,27.4,19.6,30.30,SSE,162,14.0,16.0,72,0.00,,BKN085,0.00,647.00,VWS V14.00,2013-03-13 17:43:00,
2013-03-13 12:48:00,27.9,20.1,30.30,SSE,163,12.0,16.0,72,0.00,,BKN085,0.00,633.00,VWS V14.00,2013-03-13 17:48:00,
2013-03-13 12:53:00,28.6,20.4,30.30,SSE,159,13.0,16.0,71,0.00,,BKN085,0.00,654.00,VWS V14.00,2013-03-13 17:53:00,
2013-03-13 12:58:00,29.1,20.9,30.29,South,176,15.0,17.0,71,0.00,,BKN085,0.00,698.00,VWS V14.00,2013-03-13 17:58:00,
2013-03-13 13:03:00,29.7,21.1,30.29,SSE,168,14.0,14.0,70,0.00,,BKN085,0.00,647.00,VWS V14.00,2013-03-13 18:03:00,
2013-03-13 13:08:00,30.2,21.3,30.28,SSE,161,13.0,15.0,69,0.00,,BKN085,0.00,650.00,VWS V14.00,2013-03-13 18:08:00,
2013-03-13 13:13:00,30.7,21.1,30.28,SSE,155,12.0,15.0,67,0.00,,BKN085,0.00,613.00,VWS V14.00,2013-03-13 18:13:00,
2013-03-13 13:18:00,31.3,21.6,30.27,South,170,9.0,15.0,67,0.00,,BKN085,0.00,619.00,VWS V14.00,2013-03-13 18:18:00,
2013-03-13 13:23:00,31.8,21.8,30.27,South,172,9.0,16.0,66,0.00,,BKN085,0.00,645.00,VWS V14.00,2013-03-13 18:23:00,
2013-03-13 13:28:00,32.5,21.7,30.27,South,173,9.0,18.0,64,0.00,,BKN085,0.00,635.00,VWS V14.00,2013-03-13 18:28:00,
2013-03-13 13:33:00,33.0,21.0,30.27,South,186,14.0,19.0,61,0.00,,BKN085,0.00,686.00,VWS V14.00,2013-03-13 18:33:00,
2013-03-13 13:38:00,33.6,21.2,30.26,South,188,13.0,19.0,60,0.00,,BKN085,0.00,612.00,VWS V14.00,2013-03-13 18:38:00,
2013-03-13 13:43:00,33.8,21.0,30.26,South,177,19.0,19.0,59,0.00,,CLR,0.00,615.00,VWS V14.00,2013-03-13 18:43:00,
2013-03-13 13:49:00,33.9,20.7,30.26,South,184,15.0,19.0,58,0.00,,CLR,0.00,636.00,VWS V14.00,2013-03-13 18:49:00,
2013-03-13 13:54:00,34.4,21.2,30.25,South,184,18.0,20.0,58,0.00,,CLR,0.00,640.00,VWS V14.00,2013-03-13 18:54:00,
2013-03-13 13:59:00,34.7,22.2,30.25,South,183,16.0,16.0,60,0.00,,CLR,0.00,631.00,VWS V14.00,2013-03-13 18:59:00,
2013-03-13 14:04:00,35.1,22.2,30.25,South,173,14.0,19.0,59,0.00,,CLR,0.00,564.00,VWS V14.00,2013-03-13 19:04:00,
2013-03-13 14:09:00,35.4,22.5,30.24,South,174,14.0,20.0,59,0.00,,CLR,0.00,577.00,VWS V14.00,2013-03-13 19:09:00,
2013-03-13 14:14:00,35.5,23.0,30.24,South,190,15.0,21.0,60,0.00,,CLR,0.00,571.00,VWS V14.00,2013-03-13 19:14:00,
2013-03-13 14:19:00,35.7,22.4,30.24,South,185,17.0,21.0,58,0.00,,CLR,0.00,592.00,VWS V14.00,2013-03-13 19:19:00,
2013-03-13 14:24:00,36.0,23.1,30.24,South,178,14.0,21.0,59,0.00,,CLR,0.00,561.00,VWS V14.00,2013-03-13 19:24:00,
2013-03-13 14:29:00,36.2,23.7,30.23,South,181,13.0,14.0,60,0.00,,CLR,0.00,545.00,VWS V14.00,2013-03-13 19:29:00,
2013-03-13 14:35:00,36.6,23.6,30.23,South,182,9.0,17.0,59,0.00,,CLR,0.00,578.00,VWS V14.00,2013-03-13 19:35:00,
2013-03-13 14:40:00,36.9,23.5,30.23,South,189,15.0,18.0,58,0.00,,CLR,0.00,568.00,VWS V14.00,2013-03-13 19:40:00,
2013-03-13 14:45:00,37.0,23.6,30.22,SSW,205,11.0,18.0,58,0.00,,CLR,0.00,557.00,VWS V14.00,2013-03-13 19:45:00,
2013-03-13 14:50:00,37.3,23.1,30.22,South,190,16.0,19.0,56,0.00,,CLR,0.00,536.00,VWS V14.00,2013-03-13 19:50:00,
2013-03-13 14:55:00,37.3,23.9,30.21,South,178,18.0,21.0,58,0.00,,CLR,0.00,649.00,VWS V14.00,2013-03-13 19:55:00,
2013-03-13 15:00:00,37.6,23.8,30.21,South,186,14.0,19.0,57,0.00,,CLR,0.00,517.00,VWS V14.00,2013-03-13 20:00:00,
2013-03-13 15:06:00,37.9,24.9,30.20,South,185,17.0,20.0,59,0.00,,CLR,0.00,496.00,VWS V14.00,2013-03-13 20:06:00,
2013-03-13 15:11:00,38.2,24.7,30.20,South,188,12.0,20.0,58,0.00,,CLR,0.00,587.00,VWS V14.00,2013-03-13 20:11:00,
2013-03-13 15:16:00,38.4,24.9,30.19,SSE,168,14.0,20.0,58,0.00,,CLR,0.00,550.00,VWS V14.00,2013-03-13 20:16:00,
2013-03-13 15:22:00,38.7,23.9,30.19,South,183,16.0,22.0,55,0.00,,CLR,0.00,570.00,VWS V14.00,2013-03-13 20:22:00,
2013-03-13 15:27:00,39.0,24.2,30.19,SSW,200,13.0,22.0,55,0.00,,CLR,0.00,573.00,VWS V14.00,2013-03-13 20:27:00,
2013-03-13 15:32:00,39.4,25.0,30.19,South,185,15.0,19.0,56,0.00,,CLR,0.00,612.00,VWS V14.00,2013-03-13 20:32:00,
2013-03-13 15:37:00,39.9,25.5,30.19,SSW,194,12.0,19.0,56,0.00,,CLR,0.00,638.00,VWS V14.00,2013-03-13 20:37:00,
2013-03-13 15:42:00,40.0,25.1,30.18,South,184,16.0,19.0,55,0.00,,CLR,0.00,613.00,VWS V14.00,2013-03-13 20:42:00,
2013-03-13 15:47:00,40.4,25.5,30.18,South,169,13.0,19.0,55,0.00,,CLR,0.00,649.00,VWS V14.00,2013-03-13 20:47:00,
2013-03-13 15:52:00,40.8,26.3,30.18,SSE,165,12.0,19.0,56,0.00,,CLR,0.00,671.00,VWS V14.00,2013-03-13 20:52:00,
2013-03-13 15:57:00,41.1,25.7,30.18,South,170,13.0,19.0,54,0.00,,CLR,0.00,645.00,VWS V14.00,2013-03-13 20:57:00,
2013-03-13 16:02:00,41.4,26.9,30.18,South,191,13.0,13.0,56,0.00,,CLR,0.00,601.00,VWS V14.00,2013-03-13 21:02:00,
2013-03-13 16:08:00,41.6,26.2,30.18,South,176,12.0,16.0,54,0.00,,CLR,0.00,589.00,VWS V14.00,2013-03-13 21:08:00,
2013-03-13 16:13:00,41.7,26.7,30.18,South,178,14.0,16.0,55,0.00,,CLR,0.00,561.00,VWS V14.00,2013-03-13 21:13:00,
2013-03-13 16:18:00,42.0,25.7,30.17,South,191,12.0,17.0,52,0.00,,CLR,0.00,561.00,VWS V14.00,2013-03-13 21:18:00,
2013-03-13 16:23:00,42.3,26.9,30.17,South,182,13.0,17.0,54,0.00,,CLR,0.00,540.00,VWS V14.00,2013-03-13 21:23:00,
2013-03-13 16:28:00,42.3,26.9,30.17,South,180,14.0,17.0,54,0.00,,CLR,0.00,506.00,VWS V14.00,2013-03-13 21:28:00,
2013-03-13 16:34:00,42.7,26.8,30.17,South,174,9.0,15.0,53,0.00,,CLR,0.00,512.00,VWS V14.00,2013-03-13 21:34:00,
2013-03-13 16:39:00,42.8,26.4,30.17,South,180,13.0,15.0,52,0.00,,CLR,0.00,501.00,VWS V14.00,2013-03-13 21:39:00,
2013-03-13 16:44:00,43.1,26.2,30.16,South,180,10.0,16.0,51,0.00,,CLR,0.00,487.00,VWS V14.00,2013-03-13 21:44:00,
2013-03-13 16:49:00,43.3,26.4,30.16,SSE,167,13.0,16.0,51,0.00,,CLR,0.00,492.00,VWS V14.00,2013-03-13 21:49:00,
2013-03-13 16:55:00,43.6,26.2,30.16,South,173,12.0,16.0,50,0.00,,CLR,0.00,497.00,VWS V14.00,2013-03-13 21:55:00,
2013-03-13 17:00:00,43.9,26.5,30.15,South,169,10.0,12.0,50,0.00,,CLR,0.00,413.00,VWS V14.00,2013-03-13 22:00:00,
2013-03-13 17:05:00,43.7,26.8,30.15,South,182,11.0,15.0,51,0.00,,CLR,0.00,148.00,VWS V14.00,2013-03-13 22:05:00,
2013-03-13 17:10:00,43.6,27.1,30.15,South,184,11.0,15.0,52,0.00,,CLR,0.00,390.00,VWS V14.00,2013-03-13 22:10:00,
2013-03-13 17:15:00,43.7,27.2,30.15,South,174,8.0,15.0,52,0.00,,CLR,0.00,202.00,VWS V14.00,2013-03-13 22:15:00,
2013-03-13 17:20:00,43.7,27.7,30.14,SSE,168,8.0,15.0,53,0.00,,CLR,0.00,206.00,VWS V14.00,2013-03-13 22:20:00,
2013-03-13 17:25:00,44.1,26.7,30.14,SSE,157,6.0,15.0,50,0.00,,CLR,0.00,174.00,VWS V14.00,2013-03-13 22:25:00,
2013-03-13 17:30:00,43.9,27.9,30.14,SSE,148,9.0,9.0,53,0.00,,CLR,0.00,155.00,VWS V14.00,2013-03-13 22:30:00,
2013-03-13 17:35:00,43.6,28.1,30.14,SSE,148,8.0,10.0,54,0.00,,CLR,0.00,171.00,VWS V14.00,2013-03-13 22:35:00,
2013-03-13 17:40:00,43.2,28.1,30.13,SSE,147,7.0,10.0,55,0.00,,CLR,0.00,142.00,VWS V14.00,2013-03-13 22:40:00,
2013-03-13 17:45:00,42.9,28.3,30.13,SE,146,7.0,11.0,56,0.00,,CLR,0.00,146.00,VWS V14.00,2013-03-13 22:45:00,
2013-03-13 17:50:00,42.9,27.9,30.12,SSE,151,9.0,11.0,55,0.00,,CLR,0.00,137.00,VWS V14.00,2013-03-13 22:50:00,
2013-03-13 17:55:00,42.8,28.6,30.12,SSE,148,8.0,11.0,57,0.00,,CLR,0.00,120.00,VWS V14.00,2013-03-13 22:55:00,
2013-03-13 18:01:00,42.6,28.9,30.12,SE,136,7.0,9.0,58,0.00,,CLR,0.00,121.00,VWS V14.00,2013-03-13 23:01:00,
2013-03-13 18:06:00,42.7,29.0,30.12,SE,131,9.0,10.0,58,0.00,,CLR,0.00,116.00,VWS V14.00,2013-03-13 23:06:00,
2013-03-13 18:11:00,42.7,29.4,30.11,SE,136,8.0,11.0,59,0.00,,CLR,0.00,111.00,VWS V14.00,2013-03-13 23:11:00,
2013-03-13 18:17:00,42.5,29.2,30.11,SE,140,11.0,12.0,59,0.00,,CLR,0.00,91.00,VWS V14.00,2013-03-13 23:17:00,
2013-03-13 18:22:00,42.5,28.8,30.11,SE,142,8.0,12.0,58,0.00,,CLR,0.00,81.00,VWS V14.00,2013-03-13 23:22:00,
2013-03-13 18:27:00,42.4,29.1,30.11,SE,132,9.0,12.0,59,0.00,,CLR,0.00,77.00,VWS V14.00,2013-03-13 23:27:00,
2013-03-13 18:32:00,42.3,29.0,30.11,SE,132,10.0,11.0,59,0.00,,CLR,0.00,81.00,VWS V14.00,2013-03-13 23:32:00,
2013-03-13 18:37:00,41.9,29.5,30.11,SE,124,10.0,11.0,61,0.00,,CLR,0.00,90.00,VWS V14.00,2013-03-13 23:37:00,
2013-03-13 18:42:00,41.7,29.3,30.11,ESE,123,9.0,11.0,61,0.00,,OVC090,0.00,104.00,VWS V14.00,2013-03-13 23:42:00,
2013-03-13 18:47:00,41.5,29.5,30.10,SE,124,7.0,11.0,62,0.00,,OVC090,0.00,93.00,VWS V14.00,2013-03-13 23:47:00,
2013-03-13 18:52:00,41.4,29.4,30.10,SE,127,9.0,11.0,62,0.00,,OVC090,0.00,77.00,VWS V14.00,2013-03-13 23:52:00,
2013-03-13 18:58:00,41.3,29.7,30.10,ESE,123,10.0,12.0,63,0.00,,OVC090,0.00,58.00,VWS V14.00,2013-03-13 23:58:00,
2013-03-13 19:03:00,41.2,29.2,30.10,SE,131,11.0,12.0,62,0.00,,OVC090,0.00,47.00,VWS V14.00,2013-03-14 00:03:00,
2013-03-13 19:08:00,41.2,29.2,30.10,SE,135,10.0,12.0,62,0.00,,OVC090,0.00,30.00,VWS V14.00,2013-03-14 00:08:00,
2013-03-13 19:13:00,40.9,28.9,30.09,SE,130,11.0,12.0,62,0.00,,SCT120,0.00,19.00,VWS V14.00,2013-03-14 00:13:00,
2013-03-13 19:18:00,40.6,29.0,30.09,SE,128,10.0,13.0,63,0.00,,SCT120,0.00,18.00,VWS V14.00,2013-03-14 00:18:00,
2013-03-13 19:23:00,40.5,28.9,30.09,SE,130,11.0,13.0,63,0.00,,SCT120,0.00,21.00,VWS V14.00,2013-03-14 00:23:00,
2013-03-13 19:28:00,40.3,29.1,30.08,SE,133,10.0,13.0,64,0.00,,SCT120,0.00,18.00,VWS V14.00,2013-03-14 00:28:00,
2013-03-13 19:33:00,40.0,28.8,30.08,SE,138,9.0,12.0,64,0.00,,SCT120,0.00,14.00,VWS V14.00,2013-03-14 00:33:00,
2013-03-13 19:38:00,39.8,29.0,30.08,SE,136,9.0,12.0,65,0.00,,SCT120,0.00,7.00,VWS V14.00,2013-03-14 00:38:00,
2013-03-13 19:43:00,39.6,28.8,30.08,SE,136,8.0,12.0,65,0.00,,SCT120,0.00,5.00,VWS V14.00,2013-03-14 00:43:00,
2013-03-13 19:48:00,39.3,28.9,30.08,SE,137,7.0,12.0,66,0.00,,SCT120,0.00,0.00,VWS V14.00,2013-03-14 00:48:00,
2013-03-13 19:53:00,39.3,28.9,30.08,SE,139,9.0,12.0,66,0.00,,SCT120,0.00,0.00,VWS V14.00,2013-03-14 00:53:00,
2013-03-13 19:58:00,39.2,28.8,30.07,SE,138,9.0,12.0,66,0.00,,SCT120,0.00,0.00,VWS V14.00,2013-03-14 00:58:00,
2013-03-13 20:04:00,38.9,28.9,30.07,SE,136,11.0,11.0,67,0.00,,SCT120,0.00,0.00,VWS V14.00,2013-03-14 01:04:00,
2013-03-13 20:09:00,38.7,28.7,30.07,SE,139,9.0,12.0,67,0.00,,SCT120,0.00,0.00,VWS V14.00,2013-03-14 01:09:00,
2013-03-13 20:14:00,38.9,28.9,30.07,SE,146,8.0,12.0,67,0.00,,SCT120,0.00,0.00,VWS V14.00,2013-03-14 01:14:00,
2013-03-13 20:19:00,39.0,29.0,30.07,SSE,150,11.0,12.0,67,0.00,,SCT120,0.00,0.00,VWS V14.00,2013-03-14 01:19:00,
2013-03-13 20:24:00,39.1,29.1,30.07,SE,145,10.0,12.0,67,0.00,,SCT120,0.00,0.00,VWS V14.00,2013-03-14 01:24:00,
2013-03-13 20:29:00,39.1,28.7,30.07,SSE,152,9.0,9.0,66,0.00,,SCT120,0.00,0.00,VWS V14.00,2013-03-14 01:29:00,
2013-03-13 20:34:00,39.1,29.1,30.07,SE,146,8.0,12.0,67,0.00,,SCT120,0.00,0.00,VWS V14.00,2013-03-14 01:34:00,
2013-03-13 20:39:00,38.5,28.9,30.07,SE,144,7.0,12.0,68,0.00,,SCT120,0.00,0.00,VWS V14.00,2013-03-14 01:39:00,
2013-03-13 20:44:00,38.1,29.2,30.07,SE,144,7.0,12.0,70,0.00,,OVC110,0.00,0.00,VWS V14.00,2013-03-14 01:44:00,
2013-03-13 20:49:00,37.9,29.0,30.07,SE,146,6.0,12.0,70,0.00,,OVC110,0.00,0.00,VWS V14.00,2013-03-14 01:49:00,
2013-03-13 20:54:00,37.8,29.3,30.07,SSE,147,2.0,12.0,71,0.00,,OVC110,0.00,0.00,VWS V14.00,2013-03-14 01:54:00,
2013-03-13 21:00:00,37.7,28.8,30.07,SSE,147,0.0,0.0,70,0.00,,OVC110,0.00,0.00,VWS V14.00,2013-03-14 02:00:00,
2013-03-13 21:05:00,37.5,29.0,30.07,SSE,147,3.0,4.0,71,0.00,,OVC110,0.00,0.00,VWS V14.00,2013-03-14 02:05:00,
2013-03-13 21:10:00,37.4,28.9,30.07,SSE,147,3.0,5.0,71,0.00,,OVC110,0.00,0.00,VWS V14.00,2013-03-14 02:10:00,
2013-03-13 21:15:00,37.3,28.8,30.07,SSE,147,2.0,5.0,71,0.00,,OVC110,0.00,0.00,VWS V14.00,2013-03-14 02:15:00,
2013-03-13 21:20:00,37.3,28.4,30.07,SSE,147,2.0,5.0,70,0.00,,OVC110,0.00,0.00,VWS V14.00,2013-03-14 02:20:00,
2013-03-13 21:25:00,37.3,28.4,30.07,SSE,147,2.0,5.0,70,0.00,,OVC110,0.00,0.00,VWS V14.00,2013-03-14 02:25:00,
2013-03-13 21:30:00,37.6,28.4,30.07,SSE,147,2.0,2.0,69,0.00,,OVC110,0.00,0.00,VWS V14.00,2013-03-14 02:30:00,
2013-03-13 21:35:00,37.8,28.2,30.07,SSE,147,2.0,2.0,68,0.00,,OVC110,0.00,0.00,VWS V14.00,2013-03-14 02:35:00,
2013-03-13 21:40:00,38.1,28.5,30.07,SSE,147,2.0,2.0,68,0.00,,CLR,0.00,0.00,VWS V14.00,2013-03-14 02:40:00,
2013-03-13 21:45:00,38.3,28.3,30.07,SSE,147,2.0,2.0,67,0.00,,CLR,0.00,0.00,VWS V14.00,2013-03-14 02:45:00,
2013-03-13 21:50:00,38.3,28.3,30.06,SSE,147,2.0,2.0,67,0.00,,CLR,0.00,0.00,VWS V14.00,2013-03-14 02:50:00,
2013-03-13 21:56:00,38.4,28.0,30.07,SSE,147,2.0,2.0,66,0.00,,CLR,0.00,0.00,VWS V14.00,2013-03-14 02:56:00,
2013-03-13 22:01:00,38.6,28.2,30.07,SSE,147,2.0,2.0,66,0.00,,CLR,0.00,0.00,VWS V14.00,2013-03-14 03:01:00,
2013-03-13 22:06:00,38.8,28.4,30.06,SSE,147,2.0,2.0,66,0.00,,CLR,0.00,0.00,VWS V14.00,2013-03-14 03:06:00,
2013-03-13 22:11:00,39.1,28.7,30.06,SSE,147,2.0,2.0,66,0.00,,CLR,0.00,0.00,VWS V14.00,2013-03-14 03:11:00,
2013-03-13 22:17:00,39.0,28.6,30.06,SSE,147,2.0,2.0,66,0.00,,CLR,0.00,0.00,VWS V14.00,2013-03-14 03:17:00,
2013-03-13 22:22:00,39.6,28.8,30.06,SSE,147,2.0,2.0,65,0.00,,CLR,0.00,0.00,VWS V14.00,2013-03-14 03:22:00,
2013-03-13 22:27:00,39.2,28.8,30.06,SSE,147,2.0,2.0,66,0.00,,CLR,0.00,0.00,VWS V14.00,2013-03-14 03:27:00,
2013-03-13 22:32:00,39.0,29.0,30.06,SSE,147,2.0,2.0,67,0.00,,CLR,0.00,0.00,VWS V14.00,2013-03-14 03:32:00,
2013-03-13 22:37:00,38.9,28.9,30.06,SW,236,4.0,5.0,67,0.00,,CLR,0.00,0.00,VWS V14.00,2013-03-14 03:37:00,
2013-03-13 22:43:00,38.5,28.9,30.06,WSW,252,8.0,8.0,68,0.00,,CLR,0.00,0.00,VWS V14.00,2013-03-14 03:43:00,
2013-03-13 22:48:00,38.6,29.0,30.06,WSW,248,5.0,8.0,68,0.00,,CLR,0.00,0.00,VWS V14.00,2013-03-14 03:48:00,
2013-03-13 22:53:00,38.9,28.9,30.06,WSW,248,4.0,8.0,67,0.00,,CLR,0.00,0.00,VWS V14.00,2013-03-14 03:53:00,
2013-03-13 22:58:00,39.2,28.8,30.06,WSW,242,4.0,8.0,66,0.00,,CLR,0.00,0.00,VWS V14.00,2013-03-14 03:58:00,
2013-03-13 23:00:00,39.3,28.9,30.06,WSW,242,4.0,5.0,66,0.00,,CLR,0.00,0.00,VWS V14.00,2013-03-14 04:00:00,
2013-03-13 23:01:00,39.3,28.5,30.06,WSW,242,7.0,7.0,65,0.00,,CLR,0.00,0.00,VWS V14.00,2013-03-14 04:01:00,
2013-03-13 23:04:00,39.5,28.7,30.06,WSW,241,4.0,8.0,65,0.00,,CLR,0.00,0.00,VWS V14.00,2013-03-14 04:04:00,
2013-03-13 23:09:00,39.4,28.6,30.06,WSW,238,6.0,8.0,65,0.00,,CLR,0.00,0.00,VWS V14.00,2013-03-14 04:09:00,
2013-03-13 23:14:00,39.1,28.7,30.06,WSW,238,3.0,8.0,66,0.00,,CLR,0.00,0.00,VWS V14.00,2013-03-14 04:14:00,
2013-03-13 23:19:00,38.7,28.7,30.06,WSW,237,4.0,8.0,67,0.00,,CLR,0.00,0.00,VWS V14.00,2013-03-14 04:19:00,
2013-03-13 23:24:00,38.5,28.5,30.06,SW,235,6.0,8.0,67,0.00,,CLR,0.00,0.00,VWS V14.00,2013-03-14 04:24:00,
2013-03-13 23:29:00,38.4,28.8,30.06,SW,234,0.0,0.0,68,0.00,,CLR,0.00,0.00,VWS V14.00,2013-03-14 04:29:00,
2013-03-13 23:35:00,37.9,28.3,30.06,SW,234,1.0,4.0,68,0.00,,CLR,0.00,0.00,VWS V14.00,2013-03-14 04:35:00,
2013-03-13 23:40:00,37.6,28.4,30.06,SW,234,0.0,4.0,69,0.00,,CLR,0.00,0.00,VWS V14.00,2013-03-14 04:40:00,
2013-03-13 23:45:00,37.6,28.4,30.06,SW,234,1.0,4.0,69,0.00,,CLR,0.00,0.00,VWS V14.00,2013-03-14 04:45:00,
2013-03-13 23:50:00,37.6,28.7,30.05,SW,230,3.0,6.0,70,0.00,,CLR,0.00,0.00,VWS V14.00,2013-03-14 04:50:00,
2013-03-13 23:55:00,37.4,28.5,30.05,SW,230,4.0,6.0,70,0.00,,CLR,0.00,0.00,VWS V14.00,2013-03-14 04:55:00,